Morlaix/Ploujean

Airport
ICAO code: 
LFRU
Summary
ICAO Region: 
EUR
Territory: 
Location: 
Ploujean, Bretagne,
Coordinates: 
Aerial View: 
48° 36' 11.516" N, 3° 48' 56.808" W
Metar
Observation
LFRU 300930Z AUTO 25011KT 8000 BKN013/// OVC022/// 10/08 Q1022
Station
Morlaix / Ploujean
Date/Time
2021-11-30 09:30:00
Wind direction
250°
Wind speed
11 kts
Lowest cloud amount
broken clouds
Temperature
10°C
Dew point
8°C
Humidity
87%
QNH
1022 hPa
Weather condition
n/a

Description

Morlaix - Ploujean Airport is an airport located 2 km northeast of Morlaix, a commune of the Finistère department in the Brittany region of France. The airport is located in the former commune of Ploujean.

Climatology

Temperate Marine climate/Oceanic climate (Köppen climate classification Cfb). Moderately cool summer and comparatively warm winter with a temperature range of only 14°C. Prevailing south-westerly winds from the Atlantic Ocean.

Runways

Designator Length Width Surface Rops
16/34 0 0 UNK No/No
5/23 1617 36 ASP No/No
Airport map: 
Aerial View: 

SKYbrary Partners:

Safety knowledge contributed by: